sensor_id;sensor_type;location;lat;lon;timestamp;P1;durP1;ratioP1;P2;durP2;ratioP2
20000;SDS011;10161;41.188;-8.642;2024-01-30T00:00:28;12.27;;;11.07;;
20000;SDS011;10161;41.188;-8.642;2024-01-30T00:02:55;11.87;;;10.70;;
20000;SDS011;10161;41.188;-8.642;2024-01-30T00:05:22;11.73;;;10.53;;
20000;SDS011;10161;41.188;-8.642;2024-01-30T00:07:50;11.40;;;10.40;;
20000;SDS011;10161;41.188;-8.642;2024-01-30T00:10:17;11.00;;;10.10;;
20000;SDS011;10161;41.188;-8.642;2024-01-30T00:12:44;11.67;;;10.60;;
20000;SDS011;10161;41.188;-8.642;2024-01-30T00:15:12;11.90;;;10.80;;
20000;SDS011;10161;41.188;-8.642;2024-01-30T00:17:39;12.47;;;11.30;;
20000;SDS011;10161;41.188;-8.642;2024-01-30T00:20:06;11.70;;;10.70;;
20000;SDS011;10161;41.188;-8.642;2024-01-30T00:22:34;11.10;;;10.00;;
20000;SDS011;10161;41.188;-8.642;2024-01-30T00:25:03;11.63;;;10.53;;
20000;SDS011;10161;41.188;-8.642;2024-01-30T00:27:30;11.77;;;10.77;;
20000;SDS011;10161;41.188;-8.642;2024-01-30T00:29:57;11.73;;;10.63;;
20000;SDS011;10161;41.188;-8.642;2024-01-30T00:32:24;11.70;;;10.50;;
20000;SDS011;10161;41.188;-8.642;2024-01-30T00:34:51;12.10;;;11.00;;
20000;SDS011;10161;41.188;-8.642;2024-01-30T00:37:18;11.57;;;10.57;;
20000;SDS011;10161;41.188;-8.642;2024-01-30T00:39:45;11.73;;;10.63;;
20000;SDS011;10161;41.188;-8.642;2024-01-30T00:42:13;11.93;;;10.63;;
20000;SDS011;10161;41.188;-8.642;2024-01-30T00:44:40;11.90;;;10.80;;
20000;SDS011;10161;41.188;-8.642;2024-01-30T00:47:07;12.30;;;11.10;;
20000;SDS011;10161;41.188;-8.642;2024-01-30T00:49:34;11.23;;;10.10;;
20000;SDS011;10161;41.188;-8.642;2024-01-30T00:52:01;10.50;;;9.60;;
20000;SDS011;10161;41.188;-8.642;2024-01-30T00:54:28;11.33;;;10.23;;
20000;SDS011;10161;41.188;-8.642;2024-01-30T00:56:56;11.43;;;10.43;;
20000;SDS011;10161;41.188;-8.642;2024-01-30T00:59:24;10.90;;;10.00;;
20000;SDS011;10161;41.188;-8.642;2024-01-30T01:01:51;10.53;;;9.57;;
20000;SDS011;10161;41.188;-8.642;2024-01-30T01:04:18;10.30;;;9.40;;
20000;SDS011;10161;41.188;-8.642;2024-01-30T01:06:46;10.13;;;9.23;;
20000;SDS011;10161;41.188;-8.642;2024-01-30T01:09:13;10.87;;;9.80;;
20000;SDS011;10161;41.188;-8.642;2024-01-30T01:11:40;10.90;;;10.00;;
20000;SDS011;10161;41.188;-8.642;2024-01-30T01:14:07;10.50;;;9.50;;
20000;SDS011;10161;41.188;-8.642;2024-01-30T01:16:36;10.50;;;9.60;;
20000;SDS011;10161;41.188;-8.642;2024-01-30T01:19:03;11.60;;;10.43;;
20000;SDS011;10161;41.188;-8.642;2024-01-30T01:21:30;10.07;;;9.17;;
20000;SDS011;10161;41.188;-8.642;2024-01-30T01:23:57;10.67;;;9.77;;
20000;SDS011;10161;41.188;-8.642;2024-01-30T01:26:24;10.07;;;9.17;;
20000;SDS011;10161;41.188;-8.642;2024-01-30T01:28:51;10.80;;;9.87;;
20000;SDS011;10161;41.188;-8.642;2024-01-30T01:31:17;10.80;;;9.77;;
20000;SDS011;10161;41.188;-8.642;2024-01-30T01:33:49;10.80;;;9.80;;
20000;SDS011;10161;41.188;-8.642;2024-01-30T01:36:16;10.70;;;9.80;;
20000;SDS011;10161;41.188;-8.642;2024-01-30T01:38:43;11.40;;;10.40;;
20000;SDS011;10161;41.188;-8.642;2024-01-30T01:41:10;11.10;;;10.00;;
20000;SDS011;10161;41.188;-8.642;2024-01-30T01:43:37;10.80;;;9.80;;
20000;SDS011;10161;41.188;-8.642;2024-01-30T01:46:04;10.80;;;9.80;;
20000;SDS011;10161;41.188;-8.642;2024-01-30T01:48:31;11.07;;;10.00;;
20000;SDS011;10161;41.188;-8.642;2024-01-30T01:51:00;10.80;;;9.70;;
20000;SDS011;10161;41.188;-8.642;2024-01-30T01:53:27;10.97;;;9.97;;
20000;SDS011;10161;41.188;-8.642;2024-01-30T01:55:54;10.67;;;9.67;;
20000;SDS011;10161;41.188;-8.642;2024-01-30T01:58:22;10.90;;;9.97;;
20000;SDS011;10161;41.188;-8.642;2024-01-30T02:00:49;10.40;;;9.40;;
20000;SDS011;10161;41.188;-8.642;2024-01-30T02:03:18;10.00;;;9.20;;
20000;SDS011;10161;41.188;-8.642;2024-01-30T02:05:46;11.00;;;10.10;;
20000;SDS011;10161;41.188;-8.642;2024-01-30T02:08:14;10.40;;;9.50;;
20000;SDS011;10161;41.188;-8.642;2024-01-30T02:10:41;10.57;;;9.57;;
20000;SDS011;10161;41.188;-8.642;2024-01-30T02:13:08;10.73;;;9.73;;
20000;SDS011;10161;41.188;-8.642;2024-01-30T02:15:35;10.60;;;9.70;;
20000;SDS011;10161;41.188;-8.642;2024-01-30T02:18:02;9.67;;;8.77;;
20000;SDS011;10161;41.188;-8.642;2024-01-30T02:20:29;11.17;;;10.10;;
20000;SDS011;10161;41.188;-8.642;2024-01-30T02:22:58;10.30;;;9.20;;
20000;SDS011;10161;41.188;-8.642;2024-01-30T02:25:30;10.60;;;9.70;;
20000;SDS011;10161;41.188;-8.642;2024-01-30T02:27:58;10.80;;;9.80;;
20000;SDS011;10161;41.188;-8.642;2024-01-30T02:30:25;10.60;;;9.70;;
20000;SDS011;10161;41.188;-8.642;2024-01-30T02:32:52;10.47;;;9.57;;
20000;SDS011;10161;41.188;-8.642;2024-01-30T02:35:18;9.77;;;8.90;;
20000;SDS011;10161;41.188;-8.642;2024-01-30T02:37:45;10.57;;;9.60;;
20000;SDS011;10161;41.188;-8.642;2024-01-30T02:40:14;10.33;;;9.43;;
20000;SDS011;10161;41.188;-8.642;2024-01-30T02:42:41;9.60;;;8.80;;
20000;SDS011;10161;41.188;-8.642;2024-01-30T02:45:09;10.30;;;9.40;;
20000;SDS011;10161;41.188;-8.642;2024-01-30T02:47:38;9.27;;;8.47;;
20000;SDS011;10161;41.188;-8.642;2024-01-30T02:50:05;10.63;;;9.67;;
20000;SDS011;10161;41.188;-8.642;2024-01-30T02:52:33;10.57;;;9.67;;
20000;SDS011;10161;41.188;-8.642;2024-01-30T02:55:00;9.87;;;8.97;;
20000;SDS011;10161;41.188;-8.642;2024-01-30T02:57:28;10.17;;;9.27;;
20000;SDS011;10161;41.188;-8.642;2024-01-30T02:59:55;10.50;;;9.60;;
20000;SDS011;10161;41.188;-8.642;2024-01-30T03:02:22;10.17;;;9.27;;
20000;SDS011;10161;41.188;-8.642;2024-01-30T03:04:49;10.43;;;9.53;;
20000;SDS011;10161;41.188;-8.642;2024-01-30T03:07:16;10.13;;;9.23;;
20000;SDS011;10161;41.188;-8.642;2024-01-30T03:09:43;11.20;;;10.13;;
20000;SDS011;10161;41.188;-8.642;2024-01-30T03:12:11;10.07;;;9.10;;
20000;SDS011;10161;41.188;-8.642;2024-01-30T03:14:39;9.83;;;8.93;;
20000;SDS011;10161;41.188;-8.642;2024-01-30T03:17:06;10.10;;;9.23;;
20000;SDS011;10161;41.188;-8.642;2024-01-30T03:19:33;9.70;;;8.80;;
20000;SDS011;10161;41.188;-8.642;2024-01-30T03:22:00;10.07;;;9.07;;
20000;SDS011;10161;41.188;-8.642;2024-01-30T03:24:27;11.67;;;10.47;;
20000;SDS011;10161;41.188;-8.642;2024-01-30T03:26:54;10.83;;;9.80;;
20000;SDS011;10161;41.188;-8.642;2024-01-30T03:29:20;10.30;;;9.30;;
20000;SDS011;10161;41.188;-8.642;2024-01-30T03:31:49;10.10;;;9.20;;
20000;SDS011;10161;41.188;-8.642;2024-01-30T03:34:16;10.57;;;9.67;;
20000;SDS011;10161;41.188;-8.642;2024-01-30T03:36:43;10.00;;;9.00;;
20000;SDS011;10161;41.188;-8.642;2024-01-30T03:39:10;9.77;;;8.97;;
20000;SDS011;10161;41.188;-8.642;2024-01-30T03:41:37;9.27;;;8.47;;
20000;SDS011;10161;41.188;-8.642;2024-01-30T03:44:04;10.27;;;9.37;;
20000;SDS011;10161;41.188;-8.642;2024-01-30T03:46:32;11.40;;;10.40;;
20000;SDS011;10161;41.188;-8.642;2024-01-30T03:49:01;9.50;;;8.60;;
20000;SDS011;10161;41.188;-8.642;2024-01-30T03:51:28;9.77;;;8.87;;
20000;SDS011;10161;41.188;-8.642;2024-01-30T03:53:55;10.60;;;9.50;;
20000;SDS011;10161;41.188;-8.642;2024-01-30T03:56:22;10.17;;;9.27;;
20000;SDS011;10161;41.188;-8.642;2024-01-30T03:58:50;9.90;;;9.10;;
20000;SDS011;10161;41.188;-8.642;2024-01-30T04:01:17;9.80;;;9.00;;
20000;SDS011;10161;41.188;-8.642;2024-01-30T04:03:44;10.00;;;9.10;;
20000;SDS011;10161;41.188;-8.642;2024-01-30T04:06:13;10.40;;;9.47;;
20000;SDS011;10161;41.188;-8.642;2024-01-30T04:08:40;10.80;;;9.80;;
20000;SDS011;10161;41.188;-8.642;2024-01-30T04:11:07;9.80;;;8.90;;
20000;SDS011;10161;41.188;-8.642;2024-01-30T04:13:34;10.27;;;9.37;;
20000;SDS011;10161;41.188;-8.642;2024-01-30T04:16:01;10.43;;;9.53;;
20000;SDS011;10161;41.188;-8.642;2024-01-30T04:18:28;9.80;;;9.00;;
20000;SDS011;10161;41.188;-8.642;2024-01-30T04:20:55;10.43;;;9.50;;
20000;SDS011;10161;41.188;-8.642;2024-01-30T04:23:23;10.23;;;9.33;;
20000;SDS011;10161;41.188;-8.642;2024-01-30T04:25:50;11.10;;;10.10;;
20000;SDS011;10161;41.188;-8.642;2024-01-30T04:28:17;9.90;;;9.00;;
20000;SDS011;10161;41.188;-8.642;2024-01-30T04:30:44;9.93;;;9.10;;
20000;SDS011;10161;41.188;-8.642;2024-01-30T04:33:11;10.17;;;9.27;;
20000;SDS011;10161;41.188;-8.642;2024-01-30T04:35:38;10.33;;;9.43;;
20000;SDS011;10161;41.188;-8.642;2024-01-30T04:38:05;10.03;;;9.13;;
20000;SDS011;10161;41.188;-8.642;2024-01-30T04:40:33;10.23;;;9.30;;
20000;SDS011;10161;41.188;-8.642;2024-01-30T04:43:00;10.53;;;9.53;;
20000;SDS011;10161;41.188;-8.642;2024-01-30T04:45:27;10.40;;;9.50;;
20000;SDS011;10161;41.188;-8.642;2024-01-30T04:47:54;10.00;;;9.10;;
20000;SDS011;10161;41.188;-8.642;2024-01-30T04:50:21;10.57;;;9.50;;
20000;SDS011;10161;41.188;-8.642;2024-01-30T04:52:49;10.20;;;9.30;;
20000;SDS011;10161;41.188;-8.642;2024-01-30T04:55:16;11.00;;;9.90;;
20000;SDS011;10161;41.188;-8.642;2024-01-30T04:57:44;9.67;;;8.80;;
20000;SDS011;10161;41.188;-8.642;2024-01-30T05:00:12;10.30;;;9.40;;
20000;SDS011;10161;41.188;-8.642;2024-01-30T05:02:39;10.40;;;9.30;;
20000;SDS011;10161;41.188;-8.642;2024-01-30T05:05:06;9.97;;;9.07;;
20000;SDS011;10161;41.188;-8.642;2024-01-30T05:07:33;10.40;;;9.40;;
20000;SDS011;10161;41.188;-8.642;2024-01-30T05:10:00;10.10;;;9.20;;
20000;SDS011;10161;41.188;-8.642;2024-01-30T05:12:28;10.70;;;9.70;;
20000;SDS011;10161;41.188;-8.642;2024-01-30T05:14:56;9.60;;;8.70;;
20000;SDS011;10161;41.188;-8.642;2024-01-30T05:17:23;9.33;;;8.53;;
20000;SDS011;10161;41.188;-8.642;2024-01-30T05:19:50;9.30;;;8.40;;
20000;SDS011;10161;41.188;-8.642;2024-01-30T05:22:17;9.00;;;8.20;;
20000;SDS011;10161;41.188;-8.642;2024-01-30T05:24:44;10.10;;;9.20;;
20000;SDS011;10161;41.188;-8.642;2024-01-30T05:27:11;9.93;;;9.07;;
20000;SDS011;10161;41.188;-8.642;2024-01-30T05:29:39;9.73;;;8.77;;
20000;SDS011;10161;41.188;-8.642;2024-01-30T05:32:07;8.97;;;8.17;;
20000;SDS011;10161;41.188;-8.642;2024-01-30T05:34:35;10.37;;;9.40;;
20000;SDS011;10161;41.188;-8.642;2024-01-30T05:37:03;9.80;;;8.90;;
20000;SDS011;10161;41.188;-8.642;2024-01-30T05:39:30;9.50;;;8.63;;
20000;SDS011;10161;41.188;-8.642;2024-01-30T05:41:58;10.20;;;9.30;;
20000;SDS011;10161;41.188;-8.642;2024-01-30T05:44:25;9.70;;;8.90;;
20000;SDS011;10161;41.188;-8.642;2024-01-30T05:46:52;9.30;;;8.50;;
20000;SDS011;10161;41.188;-8.642;2024-01-30T05:49:20;9.90;;;9.10;;
20000;SDS011;10161;41.188;-8.642;2024-01-30T05:51:48;9.87;;;8.97;;
20000;SDS011;10161;41.188;-8.642;2024-01-30T05:54:15;10.17;;;9.17;;
20000;SDS011;10161;41.188;-8.642;2024-01-30T05:56:42;9.57;;;8.67;;
20000;SDS011;10161;41.188;-8.642;2024-01-30T05:59:07;8.63;;;7.93;;
20000;SDS011;10161;41.188;-8.642;2024-01-30T06:01:34;10.00;;;9.10;;
20000;SDS011;10161;41.188;-8.642;2024-01-30T06:04:01;10.00;;;9.10;;
20000;SDS011;10161;41.188;-8.642;2024-01-30T06:06:30;9.00;;;8.20;;
20000;SDS011;10161;41.188;-8.642;2024-01-30T06:08:57;9.60;;;8.70;;
20000;SDS011;10161;41.188;-8.642;2024-01-30T06:11:24;10.60;;;9.60;;
20000;SDS011;10161;41.188;-8.642;2024-01-30T06:13:51;10.17;;;9.27;;
20000;SDS011;10161;41.188;-8.642;2024-01-30T06:16:18;9.40;;;8.53;;
20000;SDS011;10161;41.188;-8.642;2024-01-30T06:18:46;9.80;;;8.90;;
20000;SDS011;10161;41.188;-8.642;2024-01-30T06:21:13;9.53;;;8.70;;
20000;SDS011;10161;41.188;-8.642;2024-01-30T06:23:41;9.60;;;8.80;;
20000;SDS011;10161;41.188;-8.642;2024-01-30T06:26:08;9.53;;;8.73;;
20000;SDS011;10161;41.188;-8.642;2024-01-30T06:28:35;10.07;;;9.27;;
20000;SDS011;10161;41.188;-8.642;2024-01-30T06:31:02;9.20;;;8.40;;
20000;SDS011;10161;41.188;-8.642;2024-01-30T06:33:30;9.77;;;8.87;;
20000;SDS011;10161;41.188;-8.642;2024-01-30T06:35:57;11.07;;;10.17;;
20000;SDS011;10161;41.188;-8.642;2024-01-30T06:38:23;10.23;;;9.23;;
20000;SDS011;10161;41.188;-8.642;2024-01-30T06:40:52;10.50;;;9.60;;
20000;SDS011;10161;41.188;-8.642;2024-01-30T06:43:19;10.33;;;9.43;;
20000;SDS011;10161;41.188;-8.642;2024-01-30T06:45:46;9.90;;;9.07;;
20000;SDS011;10161;41.188;-8.642;2024-01-30T06:48:13;9.83;;;8.93;;
20000;SDS011;10161;41.188;-8.642;2024-01-30T06:50:40;10.23;;;9.33;;
20000;SDS011;10161;41.188;-8.642;2024-01-30T06:53:07;10.90;;;9.90;;
20000;SDS011;10161;41.188;-8.642;2024-01-30T06:55:34;10.87;;;9.87;;
20000;SDS011;10161;41.188;-8.642;2024-01-30T06:58:02;10.57;;;9.57;;
20000;SDS011;10161;41.188;-8.642;2024-01-30T07:00:30;10.87;;;9.87;;
20000;SDS011;10161;41.188;-8.642;2024-01-30T07:02:57;11.67;;;10.60;;
20000;SDS011;10161;41.188;-8.642;2024-01-30T07:05:24;11.00;;;10.00;;
20000;SDS011;10161;41.188;-8.642;2024-01-30T07:07:51;12.37;;;11.27;;
20000;SDS011;10161;41.188;-8.642;2024-01-30T07:10:18;11.70;;;10.63;;
20000;SDS011;10161;41.188;-8.642;2024-01-30T07:12:45;12.43;;;11.23;;
20000;SDS011;10161;41.188;-8.642;2024-01-30T07:15:13;11.97;;;10.77;;
20000;SDS011;10161;41.188;-8.642;2024-01-30T07:17:44;11.73;;;10.63;;
20000;SDS011;10161;41.188;-8.642;2024-01-30T07:20:12;12.40;;;11.27;;
20000;SDS011;10161;41.188;-8.642;2024-01-30T07:22:39;12.30;;;11.20;;
20000;SDS011;10161;41.188;-8.642;2024-01-30T07:25:07;12.90;;;11.70;;
20000;SDS011;10161;41.188;-8.642;2024-01-30T07:27:34;11.40;;;10.40;;
20000;SDS011;10161;41.188;-8.642;2024-01-30T07:30:01;12.07;;;11.00;;
20000;SDS011;10161;41.188;-8.642;2024-01-30T07:32:30;13.13;;;11.87;;
20000;SDS011;10161;41.188;-8.642;2024-01-30T07:34:57;12.20;;;11.00;;
20000;SDS011;10161;41.188;-8.642;2024-01-30T07:37:24;11.87;;;10.87;;
20000;SDS011;10161;41.188;-8.642;2024-01-30T07:39:51;12.30;;;11.20;;
20000;SDS011;10161;41.188;-8.642;2024-01-30T07:42:21;11.43;;;10.40;;
20000;SDS011;10161;41.188;-8.642;2024-01-30T07:44:48;11.70;;;10.60;;
20000;SDS011;10161;41.188;-8.642;2024-01-30T07:47:15;13.13;;;11.90;;
20000;SDS011;10161;41.188;-8.642;2024-01-30T07:49:43;12.70;;;11.57;;
20000;SDS011;10161;41.188;-8.642;2024-01-30T07:52:11;12.30;;;11.20;;
20000;SDS011;10161;41.188;-8.642;2024-01-30T07:54:38;12.20;;;11.10;;
20000;SDS011;10161;41.188;-8.642;2024-01-30T07:57:04;12.10;;;11.00;;
20000;SDS011;10161;41.188;-8.642;2024-01-30T07:59:31;11.87;;;10.70;;
20000;SDS011;10161;41.188;-8.642;2024-01-30T08:01:58;12.00;;;10.90;;
20000;SDS011;10161;41.188;-8.642;2024-01-30T08:04:25;12.53;;;11.43;;
20000;SDS011;10161;41.188;-8.642;2024-01-30T08:06:53;11.70;;;10.60;;
20000;SDS011;10161;41.188;-8.642;2024-01-30T08:09:20;11.50;;;10.47;;
20000;SDS011;10161;41.188;-8.642;2024-01-30T08:11:47;12.03;;;11.00;;
20000;SDS011;10161;41.188;-8.642;2024-01-30T08:14:14;11.77;;;10.67;;
20000;SDS011;10161;41.188;-8.642;2024-01-30T08:16:41;11.60;;;10.50;;
20000;SDS011;10161;41.188;-8.642;2024-01-30T08:19:08;11.77;;;10.67;;
20000;SDS011;10161;41.188;-8.642;2024-01-30T08:21:35;11.13;;;10.13;;
20000;SDS011;10161;41.188;-8.642;2024-01-30T08:24:04;11.80;;;10.70;;
20000;SDS011;10161;41.188;-8.642;2024-01-30T08:26:32;11.60;;;10.50;;
20000;SDS011;10161;41.188;-8.642;2024-01-30T08:29:00;12.40;;;11.20;;
20000;SDS011;10161;41.188;-8.642;2024-01-30T08:31:27;11.47;;;10.40;;
20000;SDS011;10161;41.188;-8.642;2024-01-30T08:33:54;10.10;;;9.20;;
20000;SDS011;10161;41.188;-8.642;2024-01-30T08:36:21;11.00;;;9.97;;
20000;SDS011;10161;41.188;-8.642;2024-01-30T08:38:48;11.83;;;10.73;;
20000;SDS011;10161;41.188;-8.642;2024-01-30T08:41:16;11.67;;;10.67;;
20000;SDS011;10161;41.188;-8.642;2024-01-30T08:43:42;11.90;;;10.70;;
20000;SDS011;10161;41.188;-8.642;2024-01-30T08:46:10;11.70;;;10.60;;
20000;SDS011;10161;41.188;-8.642;2024-01-30T08:48:37;10.87;;;9.90;;
20000;SDS011;10161;41.188;-8.642;2024-01-30T08:51:04;11.70;;;10.60;;
20000;SDS011;10161;41.188;-8.642;2024-01-30T08:53:33;10.30;;;9.40;;
20000;SDS011;10161;41.188;-8.642;2024-01-30T08:56:01;11.03;;;10.03;;
20000;SDS011;10161;41.188;-8.642;2024-01-30T08:58:30;10.90;;;9.90;;
20000;SDS011;10161;41.188;-8.642;2024-01-30T09:00:57;10.67;;;9.67;;
20000;SDS011;10161;41.188;-8.642;2024-01-30T09:03:25;10.37;;;9.47;;
20000;SDS011;10161;41.188;-8.642;2024-01-30T09:05:52;11.10;;;10.00;;
20000;SDS011;10161;41.188;-8.642;2024-01-30T09:08:19;10.43;;;9.53;;
20000;SDS011;10161;41.188;-8.642;2024-01-30T09:10:46;10.60;;;9.70;;
20000;SDS011;10161;41.188;-8.642;2024-01-30T09:13:15;10.73;;;9.73;;
20000;SDS011;10161;41.188;-8.642;2024-01-30T09:15:43;11.67;;;10.67;;
20000;SDS011;10161;41.188;-8.642;2024-01-30T09:18:10;10.67;;;9.70;;
20000;SDS011;10161;41.188;-8.642;2024-01-30T09:20:37;10.93;;;9.93;;
20000;SDS011;10161;41.188;-8.642;2024-01-30T09:23:04;10.70;;;9.70;;
20000;SDS011;10161;41.188;-8.642;2024-01-30T09:25:31;9.90;;;9.00;;
20000;SDS011;10161;41.188;-8.642;2024-01-30T09:27:58;11.00;;;10.00;;
20000;SDS011;10161;41.188;-8.642;2024-01-30T09:30:25;10.07;;;9.13;;
20000;SDS011;10161;41.188;-8.642;2024-01-30T09:32:54;9.23;;;8.47;;
20000;SDS011;10161;41.188;-8.642;2024-01-30T09:35:21;9.67;;;8.77;;
20000;SDS011;10161;41.188;-8.642;2024-01-30T09:37:48;10.00;;;9.10;;
20000;SDS011;10161;41.188;-8.642;2024-01-30T09:40:15;9.80;;;8.80;;
20000;SDS011;10161;41.188;-8.642;2024-01-30T09:42:44;9.30;;;8.50;;
20000;SDS011;10161;41.188;-8.642;2024-01-30T09:45:13;9.40;;;8.60;;
20000;SDS011;10161;41.188;-8.642;2024-01-30T09:47:41;9.20;;;8.30;;
20000;SDS011;10161;41.188;-8.642;2024-01-30T09:50:10;8.87;;;7.97;;
20000;SDS011;10161;41.188;-8.642;2024-01-30T09:52:38;9.07;;;8.20;;
20000;SDS011;10161;41.188;-8.642;2024-01-30T09:55:05;9.07;;;8.27;;
20000;SDS011;10161;41.188;-8.642;2024-01-30T09:57:33;8.80;;;8.00;;
20000;SDS011;10161;41.188;-8.642;2024-01-30T10:00:01;9.27;;;8.47;;
20000;SDS011;10161;41.188;-8.642;2024-01-30T10:02:29;9.70;;;8.83;;
20000;SDS011;10161;41.188;-8.642;2024-01-30T10:04:57;9.07;;;8.17;;
20000;SDS011;10161;41.188;-8.642;2024-01-30T10:07:26;9.00;;;8.20;;
20000;SDS011;10161;41.188;-8.642;2024-01-30T10:09:53;8.17;;;7.47;;
20000;SDS011;10161;41.188;-8.642;2024-01-30T10:12:21;9.00;;;8.20;;
20000;SDS011;10161;41.188;-8.642;2024-01-30T10:14:48;8.83;;;7.93;;
20000;SDS011;10161;41.188;-8.642;2024-01-30T10:17:15;8.57;;;7.83;;
20000;SDS011;10161;41.188;-8.642;2024-01-30T10:19:42;8.63;;;7.83;;
20000;SDS011;10161;41.188;-8.642;2024-01-30T10:22:09;8.20;;;7.40;;
20000;SDS011;10161;41.188;-8.642;2024-01-30T10:24:38;8.37;;;7.60;;
20000;SDS011;10161;41.188;-8.642;2024-01-30T10:27:05;9.13;;;8.23;;
20000;SDS011;10161;41.188;-8.642;2024-01-30T10:29:32;14.40;;;8.53;;
20000;SDS011;10161;41.188;-8.642;2024-01-30T10:31:59;8.87;;;8.17;;
20000;SDS011;10161;41.188;-8.642;2024-01-30T10:34:26;8.03;;;7.33;;
20000;SDS011;10161;41.188;-8.642;2024-01-30T10:36:56;9.20;;;8.40;;
20000;SDS011;10161;41.188;-8.642;2024-01-30T10:39:27;7.50;;;6.87;;
20000;SDS011;10161;41.188;-8.642;2024-01-30T10:41:58;7.93;;;7.33;;
20000;SDS011;10161;41.188;-8.642;2024-01-30T10:44:27;8.13;;;7.43;;
20000;SDS011;10161;41.188;-8.642;2024-01-30T10:46:58;8.67;;;7.97;;
20000;SDS011;10161;41.188;-8.642;2024-01-30T10:49:27;8.47;;;7.67;;
20000;SDS011;10161;41.188;-8.642;2024-01-30T10:51:55;8.40;;;7.60;;
20000;SDS011;10161;41.188;-8.642;2024-01-30T10:54:22;8.23;;;7.43;;
20000;SDS011;10161;41.188;-8.642;2024-01-30T10:56:51;7.50;;;6.80;;
20000;SDS011;10161;41.188;-8.642;2024-01-30T10:59:20;8.90;;;7.00;;
20000;SDS011;10161;41.188;-8.642;2024-01-30T11:01:49;7.87;;;7.17;;
20000;SDS011;10161;41.188;-8.642;2024-01-30T11:04:17;8.60;;;7.80;;
20000;SDS011;10161;41.188;-8.642;2024-01-30T11:06:44;7.37;;;6.77;;
20000;SDS011;10161;41.188;-8.642;2024-01-30T11:09:11;7.80;;;7.10;;
20000;SDS011;10161;41.188;-8.642;2024-01-30T11:11:48;8.00;;;7.30;;
20000;SDS011;10161;41.188;-8.642;2024-01-30T11:14:15;7.87;;;7.07;;
20000;SDS011;10161;41.188;-8.642;2024-01-30T11:16:44;8.17;;;7.43;;
20000;SDS011;10161;41.188;-8.642;2024-01-30T11:19:11;6.90;;;6.30;;
20000;SDS011;10161;41.188;-8.642;2024-01-30T11:21:41;7.80;;;7.10;;
20000;SDS011;10161;41.188;-8.642;2024-01-30T11:24:08;7.07;;;6.47;;
20000;SDS011;10161;41.188;-8.642;2024-01-30T11:26:35;8.03;;;7.23;;
20000;SDS011;10161;41.188;-8.642;2024-01-30T11:29:03;7.50;;;6.80;;
20000;SDS011;10161;41.188;-8.642;2024-01-30T11:31:29;6.97;;;6.37;;
20000;SDS011;10161;41.188;-8.642;2024-01-30T11:33:58;8.03;;;7.23;;
20000;SDS011;10161;41.188;-8.642;2024-01-30T11:36:25;7.70;;;7.00;;
20000;SDS011;10161;41.188;-8.642;2024-01-30T11:38:52;7.77;;;7.10;;
20000;SDS011;10161;41.188;-8.642;2024-01-30T11:41:20;7.27;;;6.67;;
20000;SDS011;10161;41.188;-8.642;2024-01-30T11:43:52;7.80;;;7.10;;
20000;SDS011;10161;41.188;-8.642;2024-01-30T11:46:19;6.70;;;6.10;;
20000;SDS011;10161;41.188;-8.642;2024-01-30T11:48:46;7.23;;;6.53;;
20000;SDS011;10161;41.188;-8.642;2024-01-30T11:51:14;7.00;;;6.30;;
20000;SDS011;10161;41.188;-8.642;2024-01-30T11:53:43;7.00;;;6.40;;
20000;SDS011;10161;41.188;-8.642;2024-01-30T11:56:12;7.20;;;6.50;;
20000;SDS011;10161;41.188;-8.642;2024-01-30T11:58:42;7.37;;;6.73;;
20000;SDS011;10161;41.188;-8.642;2024-01-30T12:01:09;6.73;;;6.07;;
20000;SDS011;10161;41.188;-8.642;2024-01-30T12:03:36;7.57;;;6.87;;
20000;SDS011;10161;41.188;-8.642;2024-01-30T12:06:03;7.83;;;7.17;;
20000;SDS011;10161;41.188;-8.642;2024-01-30T12:08:33;7.23;;;6.63;;
20000;SDS011;10161;41.188;-8.642;2024-01-30T12:11:00;7.10;;;6.50;;
20000;SDS011;10161;41.188;-8.642;2024-01-30T12:13:30;6.93;;;6.33;;
20000;SDS011;10161;41.188;-8.642;2024-01-30T12:15:57;7.20;;;6.60;;
20000;SDS011;10161;41.188;-8.642;2024-01-30T12:18:24;7.23;;;6.53;;
20000;SDS011;10161;41.188;-8.642;2024-01-30T12:20:57;6.87;;;6.27;;
20000;SDS011;10161;41.188;-8.642;2024-01-30T12:23:25;6.57;;;6.00;;
20000;SDS011;10161;41.188;-8.642;2024-01-30T12:25:54;6.67;;;6.07;;
20000;SDS011;10161;41.188;-8.642;2024-01-30T12:28:21;7.30;;;6.60;;
20000;SDS011;10161;41.188;-8.642;2024-01-30T12:30:48;6.67;;;6.10;;
20000;SDS011;10161;41.188;-8.642;2024-01-30T12:33:18;6.67;;;6.17;;
20000;SDS011;10161;41.188;-8.642;2024-01-30T12:35:45;7.00;;;6.40;;
20000;SDS011;10161;41.188;-8.642;2024-01-30T12:38:13;6.90;;;6.30;;
20000;SDS011;10161;41.188;-8.642;2024-01-30T12:40:40;6.60;;;6.00;;
20000;SDS011;10161;41.188;-8.642;2024-01-30T12:43:08;8.30;;;7.50;;
20000;SDS011;10161;41.188;-8.642;2024-01-30T12:45:35;6.77;;;6.27;;
20000;SDS011;10161;41.188;-8.642;2024-01-30T12:48:03;7.60;;;6.90;;
20000;SDS011;10161;41.188;-8.642;2024-01-30T12:50:30;7.20;;;6.50;;
20000;SDS011;10161;41.188;-8.642;2024-01-30T12:52:57;7.03;;;6.33;;
20000;SDS011;10161;41.188;-8.642;2024-01-30T12:55:24;7.30;;;6.60;;
20000;SDS011;10161;41.188;-8.642;2024-01-30T12:57:53;6.80;;;6.20;;
20000;SDS011;10161;41.188;-8.642;2024-01-30T13:00:22;7.40;;;6.80;;
20000;SDS011;10161;41.188;-8.642;2024-01-30T13:02:49;6.90;;;6.30;;
20000;SDS011;10161;41.188;-8.642;2024-01-30T13:05:16;6.50;;;5.90;;
20000;SDS011;10161;41.188;-8.642;2024-01-30T13:07:43;6.90;;;6.17;;
20000;SDS011;10161;41.188;-8.642;2024-01-30T13:10:10;7.07;;;6.43;;
20000;SDS011;10161;41.188;-8.642;2024-01-30T13:12:37;6.57;;;5.97;;
20000;SDS011;10161;41.188;-8.642;2024-01-30T13:15:04;6.13;;;5.53;;
20000;SDS011;10161;41.188;-8.642;2024-01-30T13:17:33;7.23;;;6.53;;
20000;SDS011;10161;41.188;-8.642;2024-01-30T13:20:01;7.10;;;6.50;;
20000;SDS011;10161;41.188;-8.642;2024-01-30T13:22:29;7.07;;;6.37;;
20000;SDS011;10161;41.188;-8.642;2024-01-30T13:24:56;7.30;;;6.60;;
20000;SDS011;10161;41.188;-8.642;2024-01-30T13:27:23;7.63;;;6.60;;
20000;SDS011;10161;41.188;-8.642;2024-01-30T13:29:50;6.70;;;6.10;;
20000;SDS011;10161;41.188;-8.642;2024-01-30T13:32:17;6.77;;;6.17;;
20000;SDS011;10161;41.188;-8.642;2024-01-30T13:34:46;7.07;;;6.37;;
20000;SDS011;10161;41.188;-8.642;2024-01-30T13:37:13;7.00;;;6.40;;
20000;SDS011;10161;41.188;-8.642;2024-01-30T13:39:40;7.10;;;6.50;;
20000;SDS011;10161;41.188;-8.642;2024-01-30T13:42:06;6.87;;;6.17;;
20000;SDS011;10161;41.188;-8.642;2024-01-30T13:44:34;7.07;;;6.40;;
20000;SDS011;10161;41.188;-8.642;2024-01-30T13:47:01;7.53;;;6.83;;
20000;SDS011;10161;41.188;-8.642;2024-01-30T13:49:28;6.53;;;5.93;;
20000;SDS011;10161;41.188;-8.642;2024-01-30T13:51:57;7.07;;;6.37;;
20000;SDS011;10161;41.188;-8.642;2024-01-30T13:54:24;7.60;;;6.90;;
20000;SDS011;10161;41.188;-8.642;2024-01-30T13:56:51;7.30;;;6.10;;
20000;SDS011;10161;41.188;-8.642;2024-01-30T13:59:18;7.13;;;6.43;;
20000;SDS011;10161;41.188;-8.642;2024-01-30T14:01:49;6.93;;;6.33;;
20000;SDS011;10161;41.188;-8.642;2024-01-30T14:04:16;8.37;;;6.73;;
20000;SDS011;10161;41.188;-8.642;2024-01-30T14:06:43;7.53;;;6.83;;
20000;SDS011;10161;41.188;-8.642;2024-01-30T14:09:11;7.80;;;7.00;;
20000;SDS011;10161;41.188;-8.642;2024-01-30T14:11:40;6.40;;;5.80;;
20000;SDS011;10161;41.188;-8.642;2024-01-30T14:14:08;6.90;;;6.23;;
20000;SDS011;10161;41.188;-8.642;2024-01-30T14:16:35;7.67;;;6.87;;
20000;SDS011;10161;41.188;-8.642;2024-01-30T14:19:02;7.37;;;6.67;;
20000;SDS011;10161;41.188;-8.642;2024-01-30T14:21:29;7.97;;;6.80;;
20000;SDS011;10161;41.188;-8.642;2024-01-30T14:23:56;6.80;;;6.20;;